sensor_id;sensor_type;location;lat;lon;timestamp;temperature;humidity
10149;DHT22;5115;50.920;6.376;2022-12-31T00:02:06;15.00;99.90
10149;DHT22;5115;50.920;6.376;2022-12-31T00:04:32;15.00;99.90
10149;DHT22;5115;50.920;6.376;2022-12-31T00:06:57;15.00;99.90
10149;DHT22;5115;50.920;6.376;2022-12-31T00:09:23;15.10;99.90
10149;DHT22;5115;50.920;6.376;2022-12-31T00:11:48;15.10;99.90
10149;DHT22;5115;50.920;6.376;2022-12-31T00:14:14;15.10;99.90
10149;DHT22;5115;50.920;6.376;2022-12-31T00:16:41;15.10;99.90
10149;DHT22;5115;50.920;6.376;2022-12-31T00:19:08;15.20;99.90
10149;DHT22;5115;50.920;6.376;2022-12-31T00:21:34;15.20;99.90
10149;DHT22;5115;50.920;6.376;2022-12-31T00:24:00;15.30;99.90
10149;DHT22;5115;50.920;6.376;2022-12-31T00:26:28;15.40;99.90
10149;DHT22;5115;50.920;6.376;2022-12-31T00:28:55;15.40;99.90
10149;DHT22;5115;50.920;6.376;2022-12-31T00:31:34;15.40;99.90
10149;DHT22;5115;50.920;6.376;2022-12-31T00:33:59;15.40;99.90
10149;DHT22;5115;50.920;6.376;2022-12-31T00:36:34;15.50;99.90
10149;DHT22;5115;50.920;6.376;2022-12-31T00:39:00;15.60;99.90
10149;DHT22;5115;50.920;6.376;2022-12-31T00:41:27;15.60;99.90
10149;DHT22;5115;50.920;6.376;2022-12-31T00:43:53;15.70;99.90
10149;DHT22;5115;50.920;6.376;2022-12-31T00:46:19;15.70;99.90
10149;DHT22;5115;50.920;6.376;2022-12-31T00:48:45;15.80;99.90
10149;DHT22;5115;50.920;6.376;2022-12-31T00:51:13;15.80;99.90
10149;DHT22;5115;50.920;6.376;2022-12-31T00:53:39;15.80;99.90
10149;DHT22;5115;50.920;6.376;2022-12-31T00:56:13;15.90;99.90
10149;DHT22;5115;50.920;6.376;2022-12-31T00:58:40;15.90;99.90
10149;DHT22;5115;50.920;6.376;2022-12-31T01:01:22;15.90;99.90
10149;DHT22;5115;50.920;6.376;2022-12-31T01:03:50;15.90;99.90
10149;DHT22;5115;50.920;6.376;2022-12-31T01:06:17;15.90;99.90
10149;DHT22;5115;50.920;6.376;2022-12-31T01:08:43;15.90;99.90
10149;DHT22;5115;50.920;6.376;2022-12-31T01:11:10;16.00;99.90
10149;DHT22;5115;50.920;6.376;2022-12-31T01:13:56;16.00;99.90
10149;DHT22;5115;50.920;6.376;2022-12-31T01:16:28;16.00;99.90
10149;DHT22;5115;50.920;6.376;2022-12-31T01:18:55;16.10;99.90
10149;DHT22;5115;50.920;6.376;2022-12-31T01:21:22;16.10;99.90
10149;DHT22;5115;50.920;6.376;2022-12-31T01:23:47;16.20;99.90
10149;DHT22;5115;50.920;6.376;2022-12-31T01:26:15;16.10;99.90
10149;DHT22;5115;50.920;6.376;2022-12-31T01:28:40;16.20;99.90
10149;DHT22;5115;50.920;6.376;2022-12-31T01:31:09;16.20;99.90
10149;DHT22;5115;50.920;6.376;2022-12-31T01:33:35;16.20;99.90
10149;DHT22;5115;50.920;6.376;2022-12-31T01:36:06;16.20;99.90
10149;DHT22;5115;50.920;6.376;2022-12-31T01:38:33;16.20;99.90
10149;DHT22;5115;50.920;6.376;2022-12-31T01:40:59;16.20;99.90
10149;DHT22;5115;50.920;6.376;2022-12-31T01:46:19;16.20;99.90
10149;DHT22;5115;50.920;6.376;2022-12-31T01:48:47;16.30;99.90
10149;DHT22;5115;50.920;6.376;2022-12-31T01:51:14;16.20;99.90
10149;DHT22;5115;50.920;6.376;2022-12-31T01:53:40;16.30;99.90
10149;DHT22;5115;50.920;6.376;2022-12-31T01:56:07;16.20;99.90
10149;DHT22;5115;50.920;6.376;2022-12-31T01:58:44;16.20;99.90
10149;DHT22;5115;50.920;6.376;2022-12-31T02:01:19;16.20;99.90
10149;DHT22;5115;50.920;6.376;2022-12-31T02:03:46;16.20;99.90
10149;DHT22;5115;50.920;6.376;2022-12-31T02:06:22;16.20;99.90
10149;DHT22;5115;50.920;6.376;2022-12-31T02:08:49;16.20;99.90
10149;DHT22;5115;50.920;6.376;2022-12-31T02:11:34;16.30;99.90
10149;DHT22;5115;50.920;6.376;2022-12-31T02:14:07;16.30;99.90
10149;DHT22;5115;50.920;6.376;2022-12-31T02:19:58;16.40;99.90
10149;DHT22;5115;50.920;6.376;2022-12-31T02:23:05;16.40;99.90
10149;DHT22;5115;50.920;6.376;2022-12-31T02:30:46;16.40;99.90
10149;DHT22;5115;50.920;6.376;2022-12-31T02:33:26;16.30;99.90
10149;DHT22;5115;50.920;6.376;2022-12-31T02:36:00;16.30;99.90
10149;DHT22;5115;50.920;6.376;2022-12-31T02:38:33;16.30;99.90
10149;DHT22;5115;50.920;6.376;2022-12-31T02:41:00;16.30;99.90
10149;DHT22;5115;50.920;6.376;2022-12-31T02:43:26;16.40;99.90
10149;DHT22;5115;50.920;6.376;2022-12-31T02:46:23;16.30;99.90
10149;DHT22;5115;50.920;6.376;2022-12-31T02:49:08;16.30;99.90
10149;DHT22;5115;50.920;6.376;2022-12-31T02:51:53;16.40;99.90
10149;DHT22;5115;50.920;6.376;2022-12-31T02:54:31;16.40;99.90
10149;DHT22;5115;50.920;6.376;2022-12-31T02:59:55;16.40;99.90
10149;DHT22;5115;50.920;6.376;2022-12-31T03:02:41;16.40;99.90
10149;DHT22;5115;50.920;6.376;2022-12-31T03:05:09;16.40;99.90
10149;DHT22;5115;50.920;6.376;2022-12-31T03:07:38;16.40;99.90
10149;DHT22;5115;50.920;6.376;2022-12-31T03:10:04;16.30;99.90
10149;DHT22;5115;50.920;6.376;2022-12-31T03:12:32;16.20;99.90
10149;DHT22;5115;50.920;6.376;2022-12-31T03:15:15;16.20;99.90
10149;DHT22;5115;50.920;6.376;2022-12-31T03:17:52;16.20;99.90
10149;DHT22;5115;50.920;6.376;2022-12-31T03:20:20;16.10;99.90
10149;DHT22;5115;50.920;6.376;2022-12-31T03:23:07;16.10;99.90
10149;DHT22;5115;50.920;6.376;2022-12-31T03:25:33;16.10;99.90
10149;DHT22;5115;50.920;6.376;2022-12-31T03:28:06;16.10;99.90
10149;DHT22;5115;50.920;6.376;2022-12-31T03:30:33;16.10;99.90
10149;DHT22;5115;50.920;6.376;2022-12-31T03:32:59;16.20;99.90
10149;DHT22;5115;50.920;6.376;2022-12-31T03:35:26;16.10;99.90
10149;DHT22;5115;50.920;6.376;2022-12-31T03:37:53;16.10;99.90
10149;DHT22;5115;50.920;6.376;2022-12-31T03:40:20;16.10;99.90
10149;DHT22;5115;50.920;6.376;2022-12-31T03:42:46;16.10;99.90
10149;DHT22;5115;50.920;6.376;2022-12-31T03:45:13;16.10;99.90
10149;DHT22;5115;50.920;6.376;2022-12-31T03:47:39;16.10;99.90
10149;DHT22;5115;50.920;6.376;2022-12-31T03:50:05;16.10;99.90
10149;DHT22;5115;50.920;6.376;2022-12-31T03:52:31;16.10;99.90
10149;DHT22;5115;50.920;6.376;2022-12-31T03:54:57;16.10;99.90
10149;DHT22;5115;50.920;6.376;2022-12-31T03:57:23;16.10;99.90
10149;DHT22;5115;50.920;6.376;2022-12-31T03:59:48;16.20;99.90
10149;DHT22;5115;50.920;6.376;2022-12-31T04:02:14;16.10;99.90
10149;DHT22;5115;50.920;6.376;2022-12-31T04:04:40;16.20;99.90
10149;DHT22;5115;50.920;6.376;2022-12-31T04:07:05;16.20;99.90
10149;DHT22;5115;50.920;6.376;2022-12-31T04:09:31;16.10;99.90
10149;DHT22;5115;50.920;6.376;2022-12-31T04:11:56;16.10;99.90
10149;DHT22;5115;50.920;6.376;2022-12-31T04:14:22;16.10;99.90
10149;DHT22;5115;50.920;6.376;2022-12-31T04:16:47;16.10;99.90
10149;DHT22;5115;50.920;6.376;2022-12-31T04:19:13;16.10;99.90
10149;DHT22;5115;50.920;6.376;2022-12-31T04:21:38;16.20;99.90
10149;DHT22;5115;50.920;6.376;2022-12-31T04:24:05;16.20;99.90
10149;DHT22;5115;50.920;6.376;2022-12-31T04:26:31;16.30;99.90
10149;DHT22;5115;50.920;6.376;2022-12-31T04:28:57;16.30;99.90
10149;DHT22;5115;50.920;6.376;2022-12-31T04:31:23;16.30;99.90
10149;DHT22;5115;50.920;6.376;2022-12-31T04:33:48;16.30;99.90
10149;DHT22;5115;50.920;6.376;2022-12-31T04:36:14;16.50;99.90
10149;DHT22;5115;50.920;6.376;2022-12-31T04:38:39;16.40;99.90
10149;DHT22;5115;50.920;6.376;2022-12-31T04:41:05;16.40;99.90
10149;DHT22;5115;50.920;6.376;2022-12-31T04:43:49;16.50;99.90
10149;DHT22;5115;50.920;6.376;2022-12-31T04:46:16;16.40;99.90
10149;DHT22;5115;50.920;6.376;2022-12-31T04:48:42;16.50;99.90
10149;DHT22;5115;50.920;6.376;2022-12-31T04:51:07;16.40;99.90
10149;DHT22;5115;50.920;6.376;2022-12-31T04:53:33;16.50;99.90
10149;DHT22;5115;50.920;6.376;2022-12-31T04:55:58;16.40;99.90
10149;DHT22;5115;50.920;6.376;2022-12-31T04:58:24;16.50;99.90
10149;DHT22;5115;50.920;6.376;2022-12-31T05:00:50;16.50;99.90
10149;DHT22;5115;50.920;6.376;2022-12-31T05:03:19;16.50;99.90
10149;DHT22;5115;50.920;6.376;2022-12-31T05:05:45;16.60;99.90
10149;DHT22;5115;50.920;6.376;2022-12-31T05:08:11;16.50;99.90
10149;DHT22;5115;50.920;6.376;2022-12-31T05:10:42;16.50;99.90
10149;DHT22;5115;50.920;6.376;2022-12-31T05:13:08;16.50;99.90
10149;DHT22;5115;50.920;6.376;2022-12-31T05:15:33;16.60;99.90
10149;DHT22;5115;50.920;6.376;2022-12-31T05:17:59;16.60;99.90
10149;DHT22;5115;50.920;6.376;2022-12-31T05:20:24;16.60;99.90
10149;DHT22;5115;50.920;6.376;2022-12-31T05:22:50;16.40;99.90
10149;DHT22;5115;50.920;6.376;2022-12-31T05:25:15;16.40;99.90
10149;DHT22;5115;50.920;6.376;2022-12-31T05:27:41;16.40;99.90
10149;DHT22;5115;50.920;6.376;2022-12-31T05:30:07;16.40;99.90
10149;DHT22;5115;50.920;6.376;2022-12-31T05:32:33;16.40;99.90
10149;DHT22;5115;50.920;6.376;2022-12-31T05:34:59;16.30;99.90
10149;DHT22;5115;50.920;6.376;2022-12-31T05:37:26;16.30;99.90
10149;DHT22;5115;50.920;6.376;2022-12-31T05:39:52;16.60;99.90
10149;DHT22;5115;50.920;6.376;2022-12-31T05:42:18;16.20;99.90
10149;DHT22;5115;50.920;6.376;2022-12-31T05:44:43;16.30;99.90
10149;DHT22;5115;50.920;6.376;2022-12-31T05:47:09;16.30;99.90
10149;DHT22;5115;50.920;6.376;2022-12-31T05:49:35;16.30;99.90
10149;DHT22;5115;50.920;6.376;2022-12-31T05:52:00;16.30;99.90
10149;DHT22;5115;50.920;6.376;2022-12-31T05:54:26;16.40;99.90
10149;DHT22;5115;50.920;6.376;2022-12-31T05:56:51;16.40;99.90
10149;DHT22;5115;50.920;6.376;2022-12-31T05:59:17;16.40;99.90
10149;DHT22;5115;50.920;6.376;2022-12-31T06:01:42;16.40;99.90
10149;DHT22;5115;50.920;6.376;2022-12-31T06:04:08;16.40;99.90
10149;DHT22;5115;50.920;6.376;2022-12-31T06:06:33;16.50;99.90
10149;DHT22;5115;50.920;6.376;2022-12-31T06:08:59;16.50;99.90
10149;DHT22;5115;50.920;6.376;2022-12-31T06:11:24;16.60;99.90
10149;DHT22;5115;50.920;6.376;2022-12-31T06:13:50;16.60;99.90
10149;DHT22;5115;50.920;6.376;2022-12-31T06:16:16;16.60;99.90
10149;DHT22;5115;50.920;6.376;2022-12-31T06:18:41;16.60;99.90
10149;DHT22;5115;50.920;6.376;2022-12-31T06:21:07;16.70;99.90
10149;DHT22;5115;50.920;6.376;2022-12-31T06:23:32;16.70;99.90
10149;DHT22;5115;50.920;6.376;2022-12-31T06:26:03;16.70;99.90
10149;DHT22;5115;50.920;6.376;2022-12-31T06:28:28;16.70;99.90
10149;DHT22;5115;50.920;6.376;2022-12-31T06:31:05;17.10;99.90
10149;DHT22;5115;50.920;6.376;2022-12-31T06:33:31;16.60;99.90
10149;DHT22;5115;50.920;6.376;2022-12-31T06:35:58;16.60;99.90
10149;DHT22;5115;50.920;6.376;2022-12-31T06:38:25;16.90;99.90
10149;DHT22;5115;50.920;6.376;2022-12-31T06:40:51;16.60;99.90
10149;DHT22;5115;50.920;6.376;2022-12-31T06:43:17;16.60;99.90
10149;DHT22;5115;50.920;6.376;2022-12-31T06:45:42;16.60;99.90
10149;DHT22;5115;50.920;6.376;2022-12-31T06:48:08;16.90;99.90
10149;DHT22;5115;50.920;6.376;2022-12-31T06:50:34;16.70;99.90
10149;DHT22;5115;50.920;6.376;2022-12-31T06:52:59;16.60;99.90
10149;DHT22;5115;50.920;6.376;2022-12-31T06:55:25;16.60;99.90
10149;DHT22;5115;50.920;6.376;2022-12-31T06:57:51;16.70;99.90
10149;DHT22;5115;50.920;6.376;2022-12-31T07:00:17;16.70;99.90
10149;DHT22;5115;50.920;6.376;2022-12-31T07:06:08;16.90;99.90
10149;DHT22;5115;50.920;6.376;2022-12-31T07:08:56;16.90;99.90
10149;DHT22;5115;50.920;6.376;2022-12-31T07:11:31;17.00;99.90
10149;DHT22;5115;50.920;6.376;2022-12-31T07:14:17;17.00;99.90
10149;DHT22;5115;50.920;6.376;2022-12-31T07:22:15;17.10;99.90
10149;DHT22;5115;50.920;6.376;2022-12-31T07:24:42;17.10;99.90
10149;DHT22;5115;50.920;6.376;2022-12-31T07:27:32;17.10;99.90
10149;DHT22;5115;50.920;6.376;2022-12-31T07:38:34;17.10;99.90
10149;DHT22;5115;50.920;6.376;2022-12-31T07:46:54;17.10;99.90
10149;DHT22;5115;50.920;6.376;2022-12-31T07:49:20;17.00;99.90
10149;DHT22;5115;50.920;6.376;2022-12-31T07:51:46;17.00;99.90
10149;DHT22;5115;50.920;6.376;2022-12-31T07:54:12;17.00;99.90
10149;DHT22;5115;50.920;6.376;2022-12-31T07:56:38;17.00;99.90
10149;DHT22;5115;50.920;6.376;2022-12-31T07:59:21;17.00;99.90
10149;DHT22;5115;50.920;6.376;2022-12-31T08:10:42;17.00;99.90
10149;DHT22;5115;50.920;6.376;2022-12-31T08:13:12;17.00;99.90
10149;DHT22;5115;50.920;6.376;2022-12-31T08:15:39;17.00;99.90
10149;DHT22;5115;50.920;6.376;2022-12-31T08:18:06;17.00;99.90
10149;DHT22;5115;50.920;6.376;2022-12-31T08:20:34;17.00;99.90
10149;DHT22;5115;50.920;6.376;2022-12-31T08:31:18;17.30;99.90
10149;DHT22;5115;50.920;6.376;2022-12-31T08:34:05;17.30;99.90
10149;DHT22;5115;50.920;6.376;2022-12-31T08:36:35;17.40;99.90
10149;DHT22;5115;50.920;6.376;2022-12-31T08:41:57;17.50;99.90
10149;DHT22;5115;50.920;6.376;2022-12-31T08:50:15;17.80;99.90
10149;DHT22;5115;50.920;6.376;2022-12-31T08:52:41;18.00;99.90
10149;DHT22;5115;50.920;6.376;2022-12-31T08:55:11;18.10;99.90
10149;DHT22;5115;50.920;6.376;2022-12-31T08:57:39;18.40;99.90
10149;DHT22;5115;50.920;6.376;2022-12-31T09:08:38;18.40;99.90
10149;DHT22;5115;50.920;6.376;2022-12-31T09:14:06;18.20;99.90
10149;DHT22;5115;50.920;6.376;2022-12-31T09:19:00;18.30;99.90
10149;DHT22;5115;50.920;6.376;2022-12-31T09:21:26;18.30;99.90
10149;DHT22;5115;50.920;6.376;2022-12-31T09:23:51;18.30;99.90
10149;DHT22;5115;50.920;6.376;2022-12-31T09:35:02;18.90;99.90
10149;DHT22;5115;50.920;6.376;2022-12-31T09:37:54;18.70;99.90
10149;DHT22;5115;50.920;6.376;2022-12-31T09:40:45;18.50;99.90
10149;DHT22;5115;50.920;6.376;2022-12-31T09:54:22;18.50;99.90
10149;DHT22;5115;50.920;6.376;2022-12-31T10:03:12;18.30;99.90
10149;DHT22;5115;50.920;6.376;2022-12-31T10:05:55;18.20;99.90
10149;DHT22;5115;50.920;6.376;2022-12-31T10:17:09;18.40;99.90
10149;DHT22;5115;50.920;6.376;2022-12-31T10:19:50;18.50;99.90
10149;DHT22;5115;50.920;6.376;2022-12-31T10:28:10;18.70;99.90
10149;DHT22;5115;50.920;6.376;2022-12-31T10:30:47;18.70;99.90
10149;DHT22;5115;50.920;6.376;2022-12-31T10:33:30;18.70;99.90
10149;DHT22;5115;50.920;6.376;2022-12-31T10:38:48;18.60;99.90
10149;DHT22;5115;50.920;6.376;2022-12-31T10:41:58;18.50;99.90
10149;DHT22;5115;50.920;6.376;2022-12-31T10:50:45;18.40;99.90
10149;DHT22;5115;50.920;6.376;2022-12-31T11:10:48;18.60;99.90
10149;DHT22;5115;50.920;6.376;2022-12-31T11:19:15;18.90;99.90
10149;DHT22;5115;50.920;6.376;2022-12-31T11:22:18;18.90;99.90
10149;DHT22;5115;50.920;6.376;2022-12-31T11:28:07;18.90;99.90
10149;DHT22;5115;50.920;6.376;2022-12-31T11:39:42;18.40;99.90
10149;DHT22;5115;50.920;6.376;2022-12-31T11:48:02;18.60;99.90
10149;DHT22;5115;50.920;6.376;2022-12-31T11:50:49;18.50;99.90
10149;DHT22;5115;50.920;6.376;2022-12-31T11:56:29;18.70;99.90
10149;DHT22;5115;50.920;6.376;2022-12-31T11:58:56;18.70;99.90
10149;DHT22;5115;50.920;6.376;2022-12-31T12:01:51;18.70;99.90
10149;DHT22;5115;50.920;6.376;2022-12-31T12:04:19;18.70;99.90
10149;DHT22;5115;50.920;6.376;2022-12-31T12:06:45;18.80;99.90
10149;DHT22;5115;50.920;6.376;2022-12-31T12:09:14;18.90;99.90
10149;DHT22;5115;50.920;6.376;2022-12-31T12:11:42;18.80;99.90
10149;DHT22;5115;50.920;6.376;2022-12-31T12:14:21;18.70;99.90
10149;DHT22;5115;50.920;6.376;2022-12-31T12:16:54;18.90;99.90
10149;DHT22;5115;50.920;6.376;2022-12-31T12:19:42;18.90;99.90
10149;DHT22;5115;50.920;6.376;2022-12-31T12:22:13;18.90;99.90
10149;DHT22;5115;50.920;6.376;2022-12-31T12:25:01;19.40;99.90
10149;DHT22;5115;50.920;6.376;2022-12-31T12:27:30;18.90;99.90
10149;DHT22;5115;50.920;6.376;2022-12-31T12:30:24;18.80;99.90
10149;DHT22;5115;50.920;6.376;2022-12-31T12:32:55;18.80;99.90
10149;DHT22;5115;50.920;6.376;2022-12-31T12:35:32;18.80;99.90
10149;DHT22;5115;50.920;6.376;2022-12-31T12:38:06;18.70;99.90
10149;DHT22;5115;50.920;6.376;2022-12-31T12:40:37;18.60;99.90
10149;DHT22;5115;50.920;6.376;2022-12-31T12:43:03;18.60;99.90
10149;DHT22;5115;50.920;6.376;2022-12-31T12:45:44;18.60;99.90
10149;DHT22;5115;50.920;6.376;2022-12-31T12:50:49;18.40;99.90
10149;DHT22;5115;50.920;6.376;2022-12-31T13:08:12;17.90;99.90
10149;DHT22;5115;50.920;6.376;2022-12-31T13:19:43;17.20;99.90
10149;DHT22;5115;50.920;6.376;2022-12-31T13:22:18;17.00;99.90
10149;DHT22;5115;50.920;6.376;2022-12-31T13:24:55;17.00;99.90
10149;DHT22;5115;50.920;6.376;2022-12-31T13:27:43;16.90;99.90
10149;DHT22;5115;50.920;6.376;2022-12-31T13:30:25;16.80;99.90
10149;DHT22;5115;50.920;6.376;2022-12-31T13:32:59;16.60;99.90
10149;DHT22;5115;50.920;6.376;2022-12-31T13:35:33;16.60;99.90
10149;DHT22;5115;50.920;6.376;2022-12-31T13:38:05;16.40;99.90
10149;DHT22;5115;50.920;6.376;2022-12-31T13:41:02;16.40;99.90
10149;DHT22;5115;50.920;6.376;2022-12-31T13:43:39;16.30;99.90
10149;DHT22;5115;50.920;6.376;2022-12-31T13:46:36;16.30;99.90
10149;DHT22;5115;50.920;6.376;2022-12-31T13:49:26;16.40;99.90
10149;DHT22;5115;50.920;6.376;2022-12-31T13:55:17;16.30;99.90
10149;DHT22;5115;50.920;6.376;2022-12-31T13:57:54;16.30;99.90
10149;DHT22;5115;50.920;6.376;2022-12-31T14:00:46;16.30;99.90
10149;DHT22;5115;50.920;6.376;2022-12-31T14:03:23;16.40;99.90
10149;DHT22;5115;50.920;6.376;2022-12-31T14:05:55;16.40;99.90
10149;DHT22;5115;50.920;6.376;2022-12-31T14:08:22;16.30;99.90
10149;DHT22;5115;50.920;6.376;2022-12-31T14:17:04;16.50;99.90
10149;DHT22;5115;50.920;6.376;2022-12-31T14:24:44;16.50;99.90
10149;DHT22;5115;50.920;6.376;2022-12-31T14:27:36;16.50;99.90
10149;DHT22;5115;50.920;6.376;2022-12-31T14:30:13;16.60;99.90
10149;DHT22;5115;50.920;6.376;2022-12-31T14:38:18;16.60;99.90
10149;DHT22;5115;50.920;6.376;2022-12-31T14:44:01;16.70;99.90
10149;DHT22;5115;50.920;6.376;2022-12-31T14:52:21;16.60;99.90
10149;DHT22;5115;50.920;6.376;2022-12-31T14:57:43;16.80;99.90
10149;DHT22;5115;50.920;6.376;2022-12-31T15:00:35;16.80;99.90
10149;DHT22;5115;50.920;6.376;2022-12-31T15:09:39;17.00;99.90
10149;DHT22;5115;50.920;6.376;2022-12-31T15:22:43;16.90;99.90
10149;DHT22;5115;50.920;6.376;2022-12-31T15:25:26;17.70;99.90
10149;DHT22;5115;50.920;6.376;2022-12-31T15:27:53;17.00;99.90
10149;DHT22;5115;50.920;6.376;2022-12-31T15:30:33;17.20;99.90
10149;DHT22;5115;50.920;6.376;2022-12-31T15:33:07;16.90;99.90
10149;DHT22;5115;50.920;6.376;2022-12-31T15:35:50;16.90;99.90
10149;DHT22;5115;50.920;6.376;2022-12-31T15:38:28;16.90;99.90
10149;DHT22;5115;50.920;6.376;2022-12-31T15:40:54;16.90;99.90
10149;DHT22;5115;50.920;6.376;2022-12-31T15:45:50;16.90;99.90
10149;DHT22;5115;50.920;6.376;2022-12-31T15:50:55;16.90;99.90
10149;DHT22;5115;50.920;6.376;2022-12-31T15:53:30;16.80;99.90
10149;DHT22;5115;50.920;6.376;2022-12-31T15:56:02;16.80;99.90
10149;DHT22;5115;50.920;6.376;2022-12-31T15:58:31;16.80;99.90
10149;DHT22;5115;50.920;6.376;2022-12-31T16:01:22;16.90;99.90
10149;DHT22;5115;50.920;6.376;2022-12-31T16:04:17;16.80;99.90
10149;DHT22;5115;50.920;6.376;2022-12-31T16:06:44;16.80;99.90
10149;DHT22;5115;50.920;6.376;2022-12-31T16:09:29;16.80;99.90
10149;DHT22;5115;50.920;6.376;2022-12-31T16:11:56;16.80;99.90
10149;DHT22;5115;50.920;6.376;2022-12-31T16:14:42;16.70;99.90
10149;DHT22;5115;50.920;6.376;2022-12-31T16:17:30;16.70;99.90
10149;DHT22;5115;50.920;6.376;2022-12-31T16:20:01;16.70;99.90
10149;DHT22;5115;50.920;6.376;2022-12-31T16:22:50;16.70;99.90
10149;DHT22;5115;50.920;6.376;2022-12-31T16:25:18;16.70;99.90
10149;DHT22;5115;50.920;6.376;2022-12-31T16:27:44;16.70;99.90
10149;DHT22;5115;50.920;6.376;2022-12-31T16:32:47;16.70;99.90
10149;DHT22;5115;50.920;6.376;2022-12-31T16:35:28;16.60;99.90
10149;DHT22;5115;50.920;6.376;2022-12-31T16:40:25;16.60;99.90
10149;DHT22;5115;50.920;6.376;2022-12-31T16:42:51;16.70;99.90
10149;DHT22;5115;50.920;6.376;2022-12-31T16:45:37;16.70;99.90
10149;DHT22;5115;50.920;6.376;2022-12-31T16:48:09;16.70;99.90
10149;DHT22;5115;50.920;6.376;2022-12-31T16:50:42;16.70;99.90
10149;DHT22;5115;50.920;6.376;2022-12-31T16:53:11;16.70;99.90
10149;DHT22;5115;50.920;6.376;2022-12-31T16:55:39;16.60;99.90
10149;DHT22;5115;50.920;6.376;2022-12-31T16:58:25;16.60;99.90
10149;DHT22;5115;50.920;6.376;2022-12-31T17:00:53;16.60;99.90
10149;DHT22;5115;50.920;6.376;2022-12-31T17:03:21;16.60;99.90
10149;DHT22;5115;50.920;6.376;2022-12-31T17:06:01;16.60;99.90
10149;DHT22;5115;50.920;6.376;2022-12-31T17:08:41;16.50;99.90
10149;DHT22;5115;50.920;6.376;2022-12-31T17:11:40;16.60;99.90
10149;DHT22;5115;50.920;6.376;2022-12-31T17:16:37;16.60;99.90
10149;DHT22;5115;50.920;6.376;2022-12-31T17:19:04;16.50;99.90
10149;DHT22;5115;50.920;6.376;2022-12-31T17:21:32;16.60;99.90
10149;DHT22;5115;50.920;6.376;2022-12-31T17:24:03;16.50;99.90
10149;DHT22;5115;50.920;6.376;2022-12-31T17:26:40;16.50;99.90
10149;DHT22;5115;50.920;6.376;2022-12-31T17:29:06;16.50;99.90
10149;DHT22;5115;50.920;6.376;2022-12-31T17:32:00;16.50;99.90
10149;DHT22;5115;50.920;6.376;2022-12-31T17:34:35;16.40;99.90
10149;DHT22;5115;50.920;6.376;2022-12-31T17:37:12;16.40;99.90
10149;DHT22;5115;50.920;6.376;2022-12-31T17:39:51;16.40;99.90
10149;DHT22;5115;50.920;6.376;2022-12-31T17:42:33;16.40;99.90
10149;DHT22;5115;50.920;6.376;2022-12-31T17:45:05;16.40;99.90
10149;DHT22;5115;50.920;6.376;2022-12-31T17:47:33;16.40;99.90
10149;DHT22;5115;50.920;6.376;2022-12-31T17:50:37;16.40;99.90
10149;DHT22;5115;50.920;6.376;2022-12-31T17:53:09;16.40;99.90
10149;DHT22;5115;50.920;6.376;2022-12-31T17:55:35;16.40;99.90
10149;DHT22;5115;50.920;6.376;2022-12-31T17:58:04;16.40;99.90
10149;DHT22;5115;50.920;6.376;2022-12-31T18:00:31;16.50;99.90
10149;DHT22;5115;50.920;6.376;2022-12-31T18:02:59;16.50;99.90
10149;DHT22;5115;50.920;6.376;2022-12-31T18:05:25;16.50;99.90
10149;DHT22;5115;50.920;6.376;2022-12-31T18:07:51;16.60;99.90
10149;DHT22;5115;50.920;6.376;2022-12-31T18:10:19;16.60;99.90
10149;DHT22;5115;50.920;6.376;2022-12-31T18:12:46;16.60;99.90
10149;DHT22;5115;50.920;6.376;2022-12-31T18:15:20;16.50;99.90
10149;DHT22;5115;50.920;6.376;2022-12-31T18:17:46;16.60;99.90
10149;DHT22;5115;50.920;6.376;2022-12-31T18:20:11;16.50;99.90
10149;DHT22;5115;50.920;6.376;2022-12-31T18:22:38;16.50;99.90
10149;DHT22;5115;50.920;6.376;2022-12-31T18:25:04;16.60;99.90
10149;DHT22;5115;50.920;6.376;2022-12-31T18:27:31;16.60;99.90
10149;DHT22;5115;50.920;6.376;2022-12-31T18:29:58;16.60;99.90
10149;DHT22;5115;50.920;6.376;2022-12-31T18:32:26;16.60;99.90
10149;DHT22;5115;50.920;6.376;2022-12-31T18:34:53;16.60;99.90
10149;DHT22;5115;50.920;6.376;2022-12-31T18:37:19;16.60;99.90
10149;DHT22;5115;50.920;6.376;2022-12-31T18:39:44;16.60;99.90
10149;DHT22;5115;50.920;6.376;2022-12-31T18:42:11;16.60;99.90
10149;DHT22;5115;50.920;6.376;2022-12-31T18:44:42;16.70;99.90
10149;DHT22;5115;50.920;6.376;2022-12-31T18:47:16;16.70;99.90
10149;DHT22;5115;50.920;6.376;2022-12-31T18:49:56;16.70;99.90
10149;DHT22;5115;50.920;6.376;2022-12-31T18:52:22;16.80;99.90
10149;DHT22;5115;50.920;6.376;2022-12-31T18:54:59;16.70;99.90
10149;DHT22;5115;50.920;6.376;2022-12-31T18:57:25;16.80;99.90
10149;DHT22;5115;50.920;6.376;2022-12-31T18:59:51;16.90;99.90
10149;DHT22;5115;50.920;6.376;2022-12-31T19:02:19;16.90;99.90
10149;DHT22;5115;50.920;6.376;2022-12-31T19:04:46;16.90;99.90
10149;DHT22;5115;50.920;6.376;2022-12-31T19:07:11;16.90;99.90
10149;DHT22;5115;50.920;6.376;2022-12-31T19:09:37;16.90;99.90
10149;DHT22;5115;50.920;6.376;2022-12-31T19:12:03;16.80;99.90
10149;DHT22;5115;50.920;6.376;2022-12-31T19:14:29;16.80;99.90
10149;DHT22;5115;50.920;6.376;2022-12-31T19:16:54;16.80;99.90
10149;DHT22;5115;50.920;6.376;2022-12-31T19:19:21;16.80;99.90
10149;DHT22;5115;50.920;6.376;2022-12-31T19:21:47;17.00;99.90
10149;DHT22;5115;50.920;6.376;2022-12-31T19:24:16;17.10;99.90
10149;DHT22;5115;50.920;6.376;2022-12-31T19:26:43;17.10;99.90
10149;DHT22;5115;50.920;6.376;2022-12-31T19:29:15;17.10;99.90
10149;DHT22;5115;50.920;6.376;2022-12-31T19:31:41;17.10;99.90
10149;DHT22;5115;50.920;6.376;2022-12-31T19:34:07;17.20;99.90
10149;DHT22;5115;50.920;6.376;2022-12-31T19:36:32;17.20;99.90
10149;DHT22;5115;50.920;6.376;2022-12-31T19:38:58;17.20;99.90
10149;DHT22;5115;50.920;6.376;2022-12-31T19:41:23;17.20;99.90
10149;DHT22;5115;50.920;6.376;2022-12-31T19:43:49;17.10;99.90
10149;DHT22;5115;50.920;6.376;2022-12-31T19:46:16;16.20;99.90
10149;DHT22;5115;50.920;6.376;2022-12-31T19:48:42;17.10;99.90
10149;DHT22;5115;50.920;6.376;2022-12-31T19:51:15;17.00;99.90
10149;DHT22;5115;50.920;6.376;2022-12-31T19:53:41;17.00;99.90
10149;DHT22;5115;50.920;6.376;2022-12-31T19:56:11;17.00;99.90
10149;DHT22;5115;50.920;6.376;2022-12-31T19:58:37;17.00;99.90
10149;DHT22;5115;50.920;6.376;2022-12-31T20:01:03;17.00;99.90
10149;DHT22;5115;50.920;6.376;2022-12-31T20:03:30;17.00;99.90
10149;DHT22;5115;50.920;6.376;2022-12-31T20:06:05;17.00;99.90
10149;DHT22;5115;50.920;6.376;2022-12-31T20:08:32;17.00;99.90
10149;DHT22;5115;50.920;6.376;2022-12-31T20:10:57;17.00;99.90
10149;DHT22;5115;50.920;6.376;2022-12-31T20:13:24;17.00;99.90
10149;DHT22;5115;50.920;6.376;2022-12-31T20:15:51;17.00;99.90
10149;DHT22;5115;50.920;6.376;2022-12-31T20:18:17;17.00;99.90
10149;DHT22;5115;50.920;6.376;2022-12-31T20:20:46;17.00;99.90
10149;DHT22;5115;50.920;6.376;2022-12-31T20:23:15;17.00;99.90
10149;DHT22;5115;50.920;6.376;2022-12-31T20:25:40;16.90;99.90
10149;DHT22;5115;50.920;6.376;2022-12-31T20:28:06;16.90;99.90
10149;DHT22;5115;50.920;6.376;2022-12-31T20:30:31;16.90;99.90